Time;durP1;ratioP1;P1;durP2;ratioP2;P2;SDS_P1;SDS_P2;PMS_P1;PMS_P2;Temp;Humidity;BMP_temperature;BMP_pressure;BME280_temperature;BME280_humidity;BME280_pressure;Samples;Min_cycle;Max_cycle;Signal;HPM_P1;HPM_P2
2023/09/18 00:01:23;;;;;;;4.20;1.20;;;;;;;;;;5077942;28;20725;-72
2023/09/18 00:03:51;;;;;;;1.93;0.90;;;;;;;;;;5078066;28;20201;-72
2023/09/18 00:06:19;;;;;;;3.17;1.00;;;;;;;;;;5078009;28;20262;-72
2023/09/18 00:08:48;;;;;;;2.70;1.10;;;;;;;;;;5077839;28;20206;-72
2023/09/18 00:11:16;;;;;;;4.27;0.90;;;;;;;;;;5078122;28;20225;-72
2023/09/18 00:13:45;;;;;;;1.57;1.00;;;;;;;;;;5077896;28;20206;-72
2023/09/18 00:16:14;;;;;;;2.37;0.70;;;;;;;;;;5078131;28;20213;-71
2023/09/18 00:18:42;;;;;;;1.10;0.87;;;;;;;;;;5077490;28;20215;-71
2023/09/18 00:21:10;;;;;;;1.83;0.90;;;;;;;;;;5078038;28;20233;-72
2023/09/18 00:23:38;;;;;;;4.63;1.10;;;;;;;;;;5077598;28;20238;-71
2023/09/18 00:26:06;;;;;;;3.03;1.00;;;;;;;;;;5077828;28;20207;-71
2023/09/18 00:28:34;;;;;;;3.83;1.00;;;;;;;;;;5077709;28;20639;-72
2023/09/18 00:31:03;;;;;;;2.40;0.80;;;;;;;;;;5077002;28;20230;-72
2023/09/18 00:33:32;;;;;;;2.23;0.97;;;;;;;;;;5077688;28;20216;-72
2023/09/18 00:36:00;;;;;;;2.53;1.07;;;;;;;;;;5077616;28;20692;-72
2023/09/18 00:38:28;;;;;;;4.17;1.13;;;;;;;;;;5077807;28;20204;-71
2023/09/18 00:40:56;;;;;;;2.00;0.90;;;;;;;;;;5077803;28;20230;-72
2023/09/18 00:43:24;;;;;;;3.47;0.83;;;;;;;;;;5077944;28;20216;-72
2023/09/18 00:45:53;;;;;;;3.00;0.80;;;;;;;;;;5077926;28;20207;-72
2023/09/18 00:48:22;;;;;;;3.70;0.63;;;;;;;;;;5077624;28;20299;-72
2023/09/18 00:50:50;;;;;;;3.70;1.00;;;;;;;;;;5077380;28;20227;-72
2023/09/18 00:53:20;;;;;;;2.70;0.93;;;;;;;;;;5077435;28;20676;-72
2023/09/18 00:55:48;;;;;;;1.47;0.80;;;;;;;;;;5077467;28;20277;-72
2023/09/18 00:58:16;;;;;;;5.23;1.20;;;;;;;;;;5077673;28;20214;-72
2023/09/18 01:00:45;;;;;;;3.70;0.97;;;;;;;;;;5077356;28;20236;-72
2023/09/18 01:03:13;;;;;;;1.30;0.83;;;;;;;;;;5077529;28;20207;-72
2023/09/18 01:05:43;;;;;;;1.70;1.10;;;;;;;;;;5077527;28;20241;-73
2023/09/18 01:08:11;;;;;;;2.60;1.13;;;;;;;;;;5077266;28;20211;-71
2023/09/18 01:10:49;;;;;;;5.93;1.10;;;;;;;;;;5077466;28;20257;-72
2023/09/18 01:13:22;;;;;;;6.47;2.40;;;;;;;;;;5077617;28;20293;-72
2023/09/18 01:15:55;;;;;;;1.53;0.80;;;;;;;;;;5077351;28;20235;-72
2023/09/18 01:18:23;;;;;;;6.27;0.87;;;;;;;;;;5072155;28;20203;-71
2023/09/18 01:20:52;;;;;;;1.67;0.87;;;;;;;;;;5077144;28;20606;-72
2023/09/18 01:23:22;;;;;;;4.43;1.10;;;;;;;;;;5077397;28;20206;-71
2023/09/18 01:25:50;;;;;;;5.53;1.07;;;;;;;;;;5077156;28;20202;-72
2023/09/18 01:28:18;;;;;;;4.50;0.90;;;;;;;;;;5077178;28;20559;-72
2023/09/18 01:30:46;;;;;;;5.87;1.50;;;;;;;;;;5077386;28;20240;-72
2023/09/18 01:33:15;;;;;;;4.93;1.20;;;;;;;;;;5077081;28;20577;-72
2023/09/18 01:35:45;;;;;;;10.63;2.13;;;;;;;;;;5077164;28;20226;-72
2023/09/18 01:38:14;;;;;;;2.50;1.40;;;;;;;;;;5077021;28;20665;-72
2023/09/18 01:40:44;;;;;;;3.97;1.70;;;;;;;;;;5077266;28;20222;-72
2023/09/18 01:43:12;;;;;;;6.37;1.70;;;;;;;;;;5080634;28;20228;-72
2023/09/18 01:45:40;;;;;;;8.57;1.80;;;;;;;;;;5081037;28;20210;-72
2023/09/18 01:48:08;;;;;;;5.03;1.93;;;;;;;;;;5080616;28;20728;-72
2023/09/18 01:50:40;;;;;;;7.30;1.80;;;;;;;;;;5080528;28;20228;-72
2023/09/18 01:53:08;;;;;;;6.97;2.03;;;;;;;;;;5080714;28;20212;-72
2023/09/18 01:55:36;;;;;;;9.20;2.00;;;;;;;;;;5080617;28;20247;-71
2023/09/18 01:58:06;;;;;;;4.87;1.83;;;;;;;;;;5080640;28;20213;-72
2023/09/18 02:00:34;;;;;;;8.80;2.40;;;;;;;;;;5080391;28;20307;-72
2023/09/18 02:03:04;;;;;;;7.63;1.53;;;;;;;;;;5080253;28;20294;-72
2023/09/18 02:05:52;;;;;;;6.60;1.77;;;;;;;;;;5080581;28;20202;-72
2023/09/18 02:08:20;;;;;;;6.57;2.80;;;;;;;;;;5080435;28;20208;-72
2023/09/18 02:10:48;;;;;;;7.63;1.80;;;;;;;;;;5080347;28;20314;-72
2023/09/18 02:13:18;;;;;;;3.50;1.60;;;;;;;;;;5080227;28;20688;-72
2023/09/18 02:15:47;;;;;;;5.87;2.20;;;;;;;;;;5080222;28;20313;-72
2023/09/18 02:18:15;;;;;;;5.30;1.77;;;;;;;;;;5080027;28;20209;-72
2023/09/18 02:20:44;;;;;;;6.80;2.83;;;;;;;;;;5079971;28;20230;-72
2023/09/18 02:23:12;;;;;;;10.57;2.60;;;;;;;;;;5080171;28;20217;-71
2023/09/18 02:25:40;;;;;;;11.47;2.90;;;;;;;;;;5079958;28;20652;-72
2023/09/18 02:28:08;;;;;;;7.93;2.67;;;;;;;;;;5080190;28;20202;-69
2023/09/18 02:30:38;;;;;;;10.37;3.20;;;;;;;;;;5080055;28;20234;-69
2023/09/18 02:33:06;;;;;;;12.97;3.20;;;;;;;;;;5080108;28;20211;-75
2023/09/18 02:35:34;;;;;;;8.87;2.90;;;;;;;;;;5079595;28;20234;-74
2023/09/18 02:38:03;;;;;;;8.67;2.70;;;;;;;;;;5079878;28;20232;-73
2023/09/18 02:40:31;;;;;;;4.63;1.73;;;;;;;;;;5079519;28;20253;-74
2023/09/18 02:42:59;;;;;;;4.10;2.50;;;;;;;;;;5079678;28;20718;-74
2023/09/18 02:45:27;;;;;;;6.47;1.90;;;;;;;;;;5080083;28;20202;-73
2023/09/18 02:47:56;;;;;;;5.20;2.00;;;;;;;;;;5079801;28;20215;-74
2023/09/18 02:50:24;;;;;;;9.53;2.10;;;;;;;;;;5079195;28;20258;-74
2023/09/18 02:52:52;;;;;;;5.07;2.00;;;;;;;;;;5078713;28;20206;-74
2023/09/18 02:55:20;;;;;;;8.40;2.20;;;;;;;;;;5079158;28;20223;-75
2023/09/18 02:57:49;;;;;;;6.93;2.40;;;;;;;;;;5079315;28;20218;-73
2023/09/18 03:00:17;;;;;;;8.67;2.57;;;;;;;;;;5079446;28;20233;-73
2023/09/18 03:03:06;;;;;;;8.73;2.43;;;;;;;;;;5079402;28;20221;-74
2023/09/18 03:05:34;;;;;;;6.27;2.60;;;;;;;;;;5079387;28;20200;-75
2023/09/18 03:08:02;;;;;;;6.13;2.60;;;;;;;;;;5079237;28;20210;-77
2023/09/18 03:10:33;;;;;;;9.20;2.50;;;;;;;;;;5079017;28;20821;-76
2023/09/18 03:13:02;;;;;;;6.73;2.67;;;;;;;;;;5078997;28;20204;-74
2023/09/18 03:15:30;;;;;;;6.53;2.40;;;;;;;;;;5078904;28;20242;-75
2023/09/18 03:17:58;;;;;;;4.97;1.80;;;;;;;;;;5078849;28;20209;-76
2023/09/18 03:20:28;;;;;;;7.70;1.83;;;;;;;;;;5078476;28;20707;-78
2023/09/18 03:22:57;;;;;;;6.80;2.03;;;;;;;;;;5078718;28;20211;-77
2023/09/18 03:25:26;;;;;;;7.80;1.97;;;;;;;;;;5078691;28;20567;-75
2023/09/18 03:27:54;;;;;;;4.97;1.90;;;;;;;;;;5078761;28;20221;-76
2023/09/18 03:30:23;;;;;;;4.03;1.70;;;;;;;;;;5078783;28;20237;-78
2023/09/18 03:32:52;;;;;;;5.90;1.47;;;;;;;;;;5078961;28;20221;-77
2023/09/18 03:35:20;;;;;;;5.83;1.70;;;;;;;;;;5078449;28;20221;-74
2023/09/18 03:37:50;;;;;;;7.70;1.57;;;;;;;;;;5078843;28;20233;-77
2023/09/18 03:40:18;;;;;;;2.83;1.40;;;;;;;;;;5078438;28;20696;-74
2023/09/18 03:42:47;;;;;;;3.43;1.60;;;;;;;;;;5078579;28;20605;-76
2023/09/18 03:45:15;;;;;;;5.27;1.47;;;;;;;;;;5078371;28;20210;-76
2023/09/18 03:47:43;;;;;;;7.67;1.43;;;;;;;;;;5078719;28;20206;-76
2023/09/18 03:50:11;;;;;;;5.67;1.40;;;;;;;;;;5077865;28;20233;-75
2023/09/18 03:52:40;;;;;;;6.57;2.10;;;;;;;;;;5078410;28;20687;-75
2023/09/18 03:55:10;;;;;;;5.70;2.00;;;;;;;;;;5078340;28;20208;-75
2023/09/18 03:57:38;;;;;;;4.50;1.77;;;;;;;;;;5078317;28;20226;-75
2023/09/18 04:00:07;;;;;;;5.87;1.80;;;;;;;;;;5078051;28;20680;-75
2023/09/18 04:02:35;;;;;;;3.20;2.00;;;;;;;;;;5078305;28;20205;-74
2023/09/18 04:05:04;;;;;;;6.07;1.67;;;;;;;;;;5077785;28;20212;-76
2023/09/18 04:07:32;;;;;;;5.47;1.33;;;;;;;;;;5077911;28;20266;-75
2023/09/18 04:10:00;;;;;;;3.73;1.80;;;;;;;;;;5077853;28;20230;-74
2023/09/18 04:12:30;;;;;;;7.87;2.00;;;;;;;;;;5078196;28;20271;-75
2023/09/18 04:14:58;;;;;;;6.43;2.17;;;;;;;;;;5078296;28;20213;-75
2023/09/18 04:17:26;;;;;;;6.00;1.73;;;;;;;;;;5077884;28;20227;-76
2023/09/18 04:19:54;;;;;;;7.40;2.17;;;;;;;;;;5077904;28;20213;-76
2023/09/18 04:22:22;;;;;;;4.73;2.03;;;;;;;;;;5078231;28;20214;-76
2023/09/18 04:24:50;;;;;;;7.07;2.07;;;;;;;;;;5077822;28;20379;-75
2023/09/18 04:27:18;;;;;;;9.20;2.40;;;;;;;;;;5078195;28;20200;-76
2023/09/18 04:29:48;;;;;;;6.50;2.20;;;;;;;;;;5078205;28;20243;-76
2023/09/18 04:32:16;;;;;;;9.67;3.10;;;;;;;;;;5078078;28;20206;-76
2023/09/18 04:34:45;;;;;;;7.23;2.50;;;;;;;;;;5077778;28;20263;-76
2023/09/18 04:37:14;;;;;;;5.17;2.87;;;;;;;;;;5077886;28;20227;-76
2023/09/18 04:39:42;;;;;;;4.97;2.63;;;;;;;;;;5077895;28;20207;-76
2023/09/18 04:42:10;;;;;;;5.07;2.20;;;;;;;;;;5077924;28;20206;-77
2023/09/18 04:44:38;;;;;;;4.30;2.57;;;;;;;;;;5078368;28;20215;-74
2023/09/18 04:47:07;;;;;;;7.93;2.67;;;;;;;;;;5078089;28;20198;-75
2023/09/18 04:49:35;;;;;;;4.40;2.63;;;;;;;;;;5077591;28;20209;-74
2023/09/18 04:52:05;;;;;;;7.30;2.70;;;;;;;;;;5077942;28;20240;-75
2023/09/18 04:54:33;;;;;;;6.50;2.80;;;;;;;;;;5077314;28;20546;-74
2023/09/18 04:57:01;;;;;;;3.77;2.23;;;;;;;;;;5077328;28;20234;-75
2023/09/18 04:59:29;;;;;;;8.47;4.27;;;;;;;;;;5077370;28;20214;-75
2023/09/18 05:01:57;;;;;;;8.33;2.67;;;;;;;;;;5077721;28;20324;-75
2023/09/18 05:04:27;;;;;;;6.77;2.87;;;;;;;;;;5077288;28;20270;-75
2023/09/18 05:06:56;;;;;;;4.43;2.57;;;;;;;;;;5077544;28;20207;-75
2023/09/18 05:09:24;;;;;;;9.13;2.60;;;;;;;;;;5077453;28;20204;-74
2023/09/18 05:11:52;;;;;;;5.23;2.13;;;;;;;;;;5077298;28;20258;-72
2023/09/18 05:14:20;;;;;;;7.20;3.17;;;;;;;;;;5077490;28;20217;-72
2023/09/18 05:16:48;;;;;;;6.60;2.60;;;;;;;;;;5078828;28;20276;-75
2023/09/18 05:19:16;;;;;;;5.20;2.50;;;;;;;;;;5080936;28;20599;-75
2023/09/18 05:21:46;;;;;;;5.40;2.40;;;;;;;;;;5081128;28;20226;-75
2023/09/18 05:24:14;;;;;;;2.87;1.83;;;;;;;;;;5080888;28;20244;-74
2023/09/18 05:26:43;;;;;;;3.63;2.10;;;;;;;;;;5081337;28;20202;-74
2023/09/18 05:29:11;;;;;;;7.87;2.10;;;;;;;;;;5080803;28;20217;-72
2023/09/18 05:31:39;;;;;;;4.33;1.77;;;;;;;;;;5081018;28;20344;-72
2023/09/18 05:34:07;;;;;;;3.93;1.90;;;;;;;;;;5080575;28;20214;-73
2023/09/18 05:36:35;;;;;;;6.53;2.10;;;;;;;;;;5081177;28;20206;-71
2023/09/18 05:39:05;;;;;;;4.70;1.83;;;;;;;;;;5080659;28;20206;-74
2023/09/18 05:41:34;;;;;;;6.77;3.03;;;;;;;;;;5080496;28;20218;-73
2023/09/18 05:44:04;;;;;;;4.70;1.97;;;;;;;;;;5080717;28;20304;-74
2023/09/18 05:46:32;;;;;;;3.00;1.73;;;;;;;;;;5080672;28;20624;-74
2023/09/18 05:49:00;;;;;;;3.50;1.70;;;;;;;;;;5080689;28;20212;-72
2023/09/18 05:51:28;;;;;;;4.03;1.60;;;;;;;;;;5080702;28;20309;-75
2023/09/18 05:53:56;;;;;;;5.70;1.90;;;;;;;;;;5080101;28;20682;-74
2023/09/18 05:56:26;;;;;;;5.20;2.07;;;;;;;;;;5080224;28;20234;-71
2023/09/18 05:58:55;;;;;;;3.53;2.20;;;;;;;;;;5080209;28;20226;-72
2023/09/18 06:01:23;;;;;;;3.57;1.70;;;;;;;;;;5080218;28;20226;-70
2023/09/18 06:03:51;;;;;;;6.07;2.20;;;;;;;;;;5080297;28;20205;-74
2023/09/18 06:06:19;;;;;;;5.23;2.30;;;;;;;;;;5080307;28;20217;-73
2023/09/18 06:08:47;;;;;;;7.70;2.20;;;;;;;;;;5080390;28;20209;-72
2023/09/18 06:11:15;;;;;;;3.87;2.10;;;;;;;;;;5079880;28;20359;-72
2023/09/18 06:13:45;;;;;;;4.73;1.90;;;;;;;;;;5080159;28;20210;-69
2023/09/18 06:16:13;;;;;;;8.77;2.23;;;;;;;;;;5080336;28;20205;-70
2023/09/18 06:18:41;;;;;;;5.23;2.10;;;;;;;;;;5079847;28;20317;-70
2023/09/18 06:21:09;;;;;;;4.50;2.00;;;;;;;;;;5080084;28;20226;-70
2023/09/18 06:23:37;;;;;;;5.43;1.83;;;;;;;;;;5080041;28;20206;-71
2023/09/18 06:26:05;;;;;;;6.47;2.13;;;;;;;;;;5080261;28;20202;-71
2023/09/18 06:28:33;;;;;;;8.10;2.20;;;;;;;;;;5079822;28;20213;-68
2023/09/18 06:31:03;;;;;;;3.77;1.70;;;;;;;;;;5079968;28;20226;-67
2023/09/18 06:33:31;;;;;;;5.20;2.00;;;;;;;;;;5079511;28;20271;-69
2023/09/18 06:35:59;;;;;;;5.90;1.80;;;;;;;;;;5080013;28;20290;-66
2023/09/18 06:38:27;;;;;;;4.70;1.83;;;;;;;;;;5079485;28;20221;-69
2023/09/18 06:40:56;;;;;;;6.37;2.00;;;;;;;;;;5079506;28;20218;-70
2023/09/18 06:43:24;;;;;;;3.10;1.80;;;;;;;;;;5079819;28;20688;-70
2023/09/18 06:45:52;;;;;;;3.97;1.60;;;;;;;;;;5079638;28;20735;-69
2023/09/18 06:48:21;;;;;;;4.07;2.07;;;;;;;;;;5079510;28;20230;-69
2023/09/18 06:50:49;;;;;;;5.03;1.63;;;;;;;;;;5079715;28;20314;-68
2023/09/18 06:53:17;;;;;;;9.33;2.23;;;;;;;;;;5079552;28;20216;-67
2023/09/18 06:55:45;;;;;;;3.77;2.10;;;;;;;;;;5079585;28;20263;-69
2023/09/18 06:58:13;;;;;;;6.77;2.33;;;;;;;;;;5079256;28;20237;-70
2023/09/18 07:00:42;;;;;;;4.77;2.80;;;;;;;;;;5079423;28;20245;-69
2023/09/18 07:03:11;;;;;;;2.80;1.97;;;;;;;;;;5078914;28;20217;-69
2023/09/18 07:05:42;;;;;;;5.13;2.10;;;;;;;;;;5079382;28;20213;-68
2023/09/18 07:08:11;;;;;;;2.50;2.27;;;;;;;;;;5079085;28;20289;-67
2023/09/18 07:10:41;;;;;;;4.10;2.00;;;;;;;;;;5078827;28;20226;-70
2023/09/18 07:13:09;;;;;;;3.60;1.63;;;;;;;;;;5079083;28;20236;-67
2023/09/18 07:15:37;;;;;;;2.73;1.70;;;;;;;;;;5079143;28;20213;-69
2023/09/18 07:18:05;;;;;;;3.00;1.50;;;;;;;;;;5078449;28;20693;-70
2023/09/18 07:20:33;;;;;;;3.13;1.63;;;;;;;;;;5078866;28;20225;-67
2023/09/18 07:23:03;;;;;;;3.37;1.47;;;;;;;;;;5079161;28;20210;-69
2023/09/18 07:25:31;;;;;;;4.53;1.47;;;;;;;;;;5079128;28;20214;-67
2023/09/18 07:27:59;;;;;;;3.67;1.70;;;;;;;;;;5078867;28;20198;-70
2023/09/18 07:30:28;;;;;;;6.10;1.60;;;;;;;;;;5078629;28;20234;-67
2023/09/18 07:32:57;;;;;;;5.30;1.70;;;;;;;;;;5078528;28;20281;-69
2023/09/18 07:35:26;;;;;;;4.03;2.00;;;;;;;;;;5078402;28;20206;-70
2023/09/18 07:37:54;;;;;;;2.50;1.57;;;;;;;;;;5078513;28;20296;-69
2023/09/18 07:40:23;;;;;;;3.43;1.93;;;;;;;;;;5078102;28;20225;-69
2023/09/18 07:42:51;;;;;;;1.60;1.40;;;;;;;;;;5078682;28;20206;-68
2023/09/18 07:45:19;;;;;;;9.97;2.93;;;;;;;;;;5078351;28;20214;-69
2023/09/18 07:47:47;;;;;;;4.57;2.00;;;;;;;;;;5078591;28;20214;-70
2023/09/18 07:50:16;;;;;;;8.43;1.83;;;;;;;;;;5077975;28;20292;-68
2023/09/18 07:52:46;;;;;;;5.70;1.97;;;;;;;;;;5078183;28;20213;-69
2023/09/18 07:55:15;;;;;;;6.80;1.70;;;;;;;;;;5078159;28;20210;-69
2023/09/18 07:57:45;;;;;;;3.67;1.93;;;;;;;;;;5078030;28;20210;-67
2023/09/18 08:00:15;;;;;;;9.53;2.10;;;;;;;;;;5078241;28;20230;-69
2023/09/18 08:02:44;;;;;;;4.20;1.80;;;;;;;;;;5078037;28;20206;-68
2023/09/18 08:05:12;;;;;;;2.83;1.77;;;;;;;;;;5078086;28;20217;-67
2023/09/18 08:07:40;;;;;;;4.20;1.90;;;;;;;;;;5078422;28;20256;-67
2023/09/18 08:10:09;;;;;;;3.87;2.33;;;;;;;;;;5078191;28;20223;-68
2023/09/18 08:12:39;;;;;;;2.37;1.50;;;;;;;;;;5078063;28;20684;-69
2023/09/18 08:15:10;;;;;;;4.20;1.80;;;;;;;;;;5077945;28;20210;-67
2023/09/18 08:17:38;;;;;;;5.40;1.70;;;;;;;;;;5077751;28;20628;-68
2023/09/18 08:20:12;;;;;;;6.13;1.47;;;;;;;;;;5077494;28;20249;-68
2023/09/18 08:22:40;;;;;;;2.60;1.77;;;;;;;;;;5078095;28;20247;-68
2023/09/18 08:25:10;;;;;;;3.07;1.37;;;;;;;;;;5077708;28;20225;-67
2023/09/18 08:27:41;;;;;;;5.57;1.53;;;;;;;;;;5077720;28;20202;-69
2023/09/18 08:30:12;;;;;;;8.83;1.70;;;;;;;;;;5077907;28;20226;-69
2023/09/18 08:32:40;;;;;;;6.60;1.87;;;;;;;;;;5077777;28;20206;-70
2023/09/18 08:35:09;;;;;;;1.97;1.20;;;;;;;;;;5077328;28;20202;-69
2023/09/18 08:37:37;;;;;;;3.27;1.13;;;;;;;;;;5077694;28;20238;-69
2023/09/18 08:40:09;;;;;;;3.83;1.60;;;;;;;;;;5077321;28;20588;-67
2023/09/18 08:42:39;;;;;;;4.17;1.70;;;;;;;;;;5078003;28;20237;-69
2023/09/18 08:45:10;;;;;;;3.73;1.83;;;;;;;;;;5078503;28;20208;-68
2023/09/18 08:47:41;;;;;;;4.30;1.60;;;;;;;;;;5078361;28;20311;-69
2023/09/18 08:50:10;;;;;;;6.83;1.83;;;;;;;;;;5077631;28;20229;-68
2023/09/18 08:52:38;;;;;;;2.43;1.43;;;;;;;;;;5080736;28;20262;-68
2023/09/18 08:55:07;;;;;;;6.63;1.83;;;;;;;;;;5081853;28;20210;-68
2023/09/18 08:57:37;;;;;;;5.07;1.90;;;;;;;;;;5081545;28;20242;-69
2023/09/18 09:00:07;;;;;;;3.23;1.50;;;;;;;;;;5081398;28;20237;-68
2023/09/18 09:02:36;;;;;;;5.23;1.87;;;;;;;;;;5081370;28;20741;-69
2023/09/18 09:05:06;;;;;;;3.07;2.20;;;;;;;;;;5081311;28;20230;-70
2023/09/18 09:07:34;;;;;;;3.07;1.90;;;;;;;;;;5081397;28;20202;-69
2023/09/18 09:10:03;;;;;;;3.43;1.60;;;;;;;;;;5081238;28;20226;-70
2023/09/18 09:12:53;;;;;;;3.87;1.50;;;;;;;;;;5081571;28;20214;-69
2023/09/18 09:15:21;;;;;;;2.20;1.70;;;;;;;;;;5078535;28;20645;-69
2023/09/18 09:17:50;;;;;;;5.53;1.70;;;;;;;;;;5081190;28;20198;-68
2023/09/18 09:20:19;;;;;;;2.03;1.60;;;;;;;;;;5080848;28;20226;-68
2023/09/18 09:22:47;;;;;;;3.53;1.73;;;;;;;;;;5081401;28;20212;-68
2023/09/18 09:25:26;;;;;;;4.50;1.80;;;;;;;;;;5080824;28;20665;-69
2023/09/18 09:27:54;;;;;;;6.40;2.33;;;;;;;;;;5081131;28;20212;-67
2023/09/18 09:30:23;;;;;;;3.40;1.67;;;;;;;;;;5080835;28;20569;-68
2023/09/18 09:32:52;;;;;;;6.20;2.10;;;;;;;;;;5081087;28;20202;-69
2023/09/18 09:35:22;;;;;;;4.27;2.60;;;;;;;;;;5080508;28;20693;-70
2023/09/18 09:37:51;;;;;;;8.33;4.47;;;;;;;;;;5080876;28;20681;-69
2023/09/18 09:40:20;;;;;;;3.43;2.03;;;;;;;;;;5080726;28;20238;-70
2023/09/18 09:42:48;;;;;;;5.17;1.80;;;;;;;;;;5080855;28;20209;-69
2023/09/18 09:45:17;;;;;;;5.47;2.00;;;;;;;;;;5080670;28;20572;-70
2023/09/18 09:47:45;;;;;;;3.87;1.80;;;;;;;;;;5080819;28;20208;-69
2023/09/18 09:50:15;;;;;;;5.47;2.07;;;;;;;;;;5080543;28;20229;-69
2023/09/18 09:52:48;;;;;;;6.23;2.33;;;;;;;;;;5080870;28;20264;-69
2023/09/18 09:55:20;;;;;;;7.90;2.17;;;;;;;;;;5067978;28;20213;-69
2023/09/18 09:57:48;;;;;;;3.40;1.93;;;;;;;;;;5080458;28;20210;-70
2023/09/18 10:00:26;;;;;;;9.53;2.70;;;;;;;;;;5080550;28;20239;-70
2023/09/18 10:02:57;;;;;;;3.90;2.40;;;;;;;;;;5079782;28;20564;-70
2023/09/18 10:05:26;;;;;;;4.90;2.77;;;;;;;;;;5080424;28;20211;-70
2023/09/18 10:08:02;;;;;;;3.53;2.30;;;;;;;;;;5080298;28;20231;-70
2023/09/18 10:10:33;;;;;;;4.63;2.30;;;;;;;;;;5080345;28;20229;-70
2023/09/18 10:13:04;;;;;;;4.07;2.33;;;;;;;;;;5080448;28;20245;-70
2023/09/18 10:15:38;;;;;;;7.43;2.50;;;;;;;;;;5080431;28;20214;-69
2023/09/18 10:18:08;;;;;;;9.70;2.90;;;;;;;;;;5080076;28;20212;-70
2023/09/18 10:20:38;;;;;;;4.33;2.70;;;;;;;;;;5080002;28;20237;-70
2023/09/18 10:23:09;;;;;;;3.93;3.13;;;;;;;;;;5080260;28;20240;-70
2023/09/18 10:25:38;;;;;;;5.40;2.90;;;;;;;;;;5080213;28;20217;-70
2023/09/18 10:28:07;;;;;;;9.13;5.30;;;;;;;;;;5079958;28;20274;-69
2023/09/18 10:30:37;;;;;;;6.37;3.63;;;;;;;;;;5080169;28;20222;-70
2023/09/18 10:33:07;;;;;;;8.73;3.63;;;;;;;;;;5079981;28;20208;-70
2023/09/18 10:35:35;;;;;;;7.47;3.10;;;;;;;;;;5080097;28;20214;-69
2023/09/18 10:38:06;;;;;;;6.47;3.27;;;;;;;;;;5079791;28;20677;-70
2023/09/18 10:40:37;;;;;;;8.43;3.17;;;;;;;;;;5079793;28;20229;-70
2023/09/18 10:43:09;;;;;;;5.07;3.37;;;;;;;;;;5079936;28;20218;-70
2023/09/18 10:45:37;;;;;;;8.07;2.97;;;;;;;;;;5079926;28;20220;-70
2023/09/18 10:48:08;;;;;;;8.80;3.20;;;;;;;;;;5079551;28;20205;-70
2023/09/18 10:50:36;;;;;;;6.27;2.80;;;;;;;;;;5079926;28;20225;-70
2023/09/18 10:53:04;;;;;;;4.40;2.77;;;;;;;;;;5079743;28;20216;-70
2023/09/18 10:55:33;;;;;;;5.20;2.97;;;;;;;;;;5079723;28;20243;-70
2023/09/18 10:58:03;;;;;;;3.63;2.87;;;;;;;;;;5079649;28;20205;-70
2023/09/18 11:00:36;;;;;;;8.13;3.27;;;;;;;;;;5079239;28;20603;-69
2023/09/18 11:03:11;;;;;;;5.40;3.03;;;;;;;;;;5079214;28;20231;-70
2023/09/18 11:05:39;;;;;;;4.97;3.00;;;;;;;;;;5079441;28;20258;-71
2023/09/18 11:08:27;;;;;;;5.30;3.13;;;;;;;;;;5079153;28;20573;-70
2023/09/18 11:11:09;;;;;;;5.90;2.93;;;;;;;;;;5079302;28;20240;-70
2023/09/18 11:13:40;;;;;;;3.93;2.77;;;;;;;;;;5078793;28;20287;-69
2023/09/18 11:16:15;;;;;;;7.03;3.43;;;;;;;;;;5078571;28;20235;-70
2023/09/18 11:18:43;;;;;;;5.30;3.43;;;;;;;;;;5078668;28;20253;-69
2023/09/18 11:21:11;;;;;;;7.73;3.67;;;;;;;;;;5079020;28;20230;-70
2023/09/18 11:23:42;;;;;;;6.27;3.53;;;;;;;;;;5078720;28;20593;-70
2023/09/18 11:26:11;;;;;;;12.70;4.60;;;;;;;;;;5078885;28;20227;-69
2023/09/18 11:28:42;;;;;;;9.17;4.40;;;;;;;;;;5078713;28;20687;-70
2023/09/18 11:31:11;;;;;;;6.87;4.70;;;;;;;;;;5079087;28;20279;-70
2023/09/18 11:33:40;;;;;;;5.17;4.13;;;;;;;;;;5078398;28;20216;-70
2023/09/18 11:36:11;;;;;;;8.33;4.47;;;;;;;;;;5078643;28;20244;-70
2023/09/18 11:38:53;;;;;;;14.47;7.13;;;;;;;;;;5078617;28;20288;-70
2023/09/18 11:41:26;;;;;;;8.63;5.13;;;;;;;;;;5078654;28;20310;-69
2023/09/18 11:44:16;;;;;;;6.33;4.63;;;;;;;;;;5078621;28;20720;-70
2023/09/18 11:46:48;;;;;;;4.67;4.17;;;;;;;;;;5078408;28;20202;-70
2023/09/18 11:49:21;;;;;;;6.90;4.00;;;;;;;;;;5078477;28;20206;-68
2023/09/18 11:51:51;;;;;;;5.47;2.93;;;;;;;;;;5078170;28;20337;-68
2023/09/18 11:54:19;;;;;;;4.33;2.87;;;;;;;;;;5078125;28;20347;-67
2023/09/18 11:56:47;;;;;;;4.53;3.47;;;;;;;;;;5078213;28;20234;-69
2023/09/18 11:59:17;;;;;;;4.90;3.40;;;;;;;;;;5078436;28;20207;-69
2023/09/18 12:02:01;;;;;;;4.87;2.90;;;;;;;;;;5077882;28;20707;-68
2023/09/18 12:04:29;;;;;;;8.33;1.97;;;;;;;;;;5077673;28;20229;-69
2023/09/18 12:06:59;;;;;;;3.33;1.80;;;;;;;;;;5078145;28;20613;-69
2023/09/18 12:09:28;;;;;;;1.50;1.40;;;;;;;;;;5077853;28;20214;-67
2023/09/18 12:11:57;;;;;;;4.23;1.30;;;;;;;;;;5078194;28;20226;-68
2023/09/18 12:14:25;;;;;;;3.20;1.40;;;;;;;;;;5078091;28;20206;-69
2023/09/18 12:16:55;;;;;;;4.03;1.30;;;;;;;;;;5078121;28;20236;-68
2023/09/18 12:19:23;;;;;;;2.50;1.17;;;;;;;;;;5077903;28;20202;-68
2023/09/18 12:21:51;;;;;;;6.00;1.50;;;;;;;;;;5077774;28;20707;-69
2023/09/18 12:24:21;;;;;;;4.37;1.50;;;;;;;;;;5078075;28;20292;-69
2023/09/18 12:26:50;;;;;;;5.47;1.43;;;;;;;;;;5078033;28;20245;-69
2023/09/18 12:29:18;;;;;;;2.83;1.33;;;;;;;;;;5078084;28;20214;-69
2023/09/18 12:31:47;;;;;;;1.40;1.20;;;;;;;;;;5077640;28;20665;-70
2023/09/18 12:34:17;;;;;;;2.50;1.27;;;;;;;;;;5077731;28;20224;-69
2023/09/18 12:36:47;;;;;;;1.67;1.37;;;;;;;;;;5078013;28;20209;-70
2023/09/18 12:39:16;;;;;;;1.40;1.30;;;;;;;;;;5077845;28;20202;-69
2023/09/18 12:41:44;;;;;;;4.20;1.63;;;;;;;;;;5077630;28;20315;-69
2023/09/18 12:44:14;;;;;;;1.77;1.33;;;;;;;;;;5077635;28;20301;-70
2023/09/18 12:46:42;;;;;;;2.03;1.30;;;;;;;;;;5077821;28;20290;-70
2023/09/18 12:49:19;;;;;;;2.90;1.13;;;;;;;;;;5077760;28;20206;-69
2023/09/18 12:51:55;;;;;;;2.03;1.60;;;;;;;;;;5077718;28;20225;-69
2023/09/18 12:54:38;;;;;;;2.63;1.77;;;;;;;;;;5077787;28;20216;-68
2023/09/18 12:57:06;;;;;;;2.80;1.70;;;;;;;;;;5077450;28;20702;-69
2023/09/18 12:59:35;;;;;;;3.73;1.90;;;;;;;;;;5077857;28;20203;-70
2023/09/18 13:02:04;;;;;;;3.57;1.40;;;;;;;;;;5077426;28;20231;-71
2023/09/18 13:04:36;;;;;;;2.27;1.43;;;;;;;;;;5077375;28;20257;-69
2023/09/18 13:07:10;;;;;;;2.87;1.73;;;;;;;;;;5077761;28;20206;-69
2023/09/18 13:09:38;;;;;;;2.57;1.80;;;;;;;;;;5077455;28;20213;-69
2023/09/18 13:12:07;;;;;;;2.13;1.70;;;;;;;;;;5077693;28;20206;-69
2023/09/18 13:14:56;;;;;;;2.90;2.60;;;;;;;;;;5077414;28;20283;-71
2023/09/18 13:17:25;;;;;;;3.57;2.20;;;;;;;;;;5074216;28;20241;-68
2023/09/18 13:19:54;;;;;;;4.30;1.53;;;;;;;;;;5077222;28;20208;-70
2023/09/18 13:22:24;;;;;;;4.47;1.50;;;;;;;;;;5077345;28;20225;-70
2023/09/18 13:24:56;;;;;;;2.03;1.53;;;;;;;;;;5077132;28;20612;-70
2023/09/18 13:27:25;;;;;;;2.00;1.53;;;;;;;;;;5077484;28;20207;-70
2023/09/18 13:29:54;;;;;;;3.47;1.53;;;;;;;;;;5077431;28;20207;-69
2023/09/18 13:32:22;;;;;;;2.07;1.40;;;;;;;;;;5077074;28;20202;-71
2023/09/18 13:34:50;;;;;;;1.90;1.30;;;;;;;;;;5076856;28;20234;-69
2023/09/18 13:37:20;;;;;;;1.37;1.20;;;;;;;;;;5077619;28;20241;-68
2023/09/18 13:39:48;;;;;;;1.97;1.30;;;;;;;;;;5080629;28;20207;-68
2023/09/18 13:42:16;;;;;;;2.87;1.50;;;;;;;;;;5081008;28;20226;-68
2023/09/18 13:44:46;;;;;;;3.77;1.73;;;;;;;;;;5080709;28;20206;-69
2023/09/18 13:47:15;;;;;;;3.33;1.00;;;;;;;;;;5080997;28;20209;-71
2023/09/18 13:49:43;;;;;;;2.43;1.17;;;;;;;;;;5080218;28;20576;-70
2023/09/18 13:52:11;;;;;;;2.30;1.40;;;;;;;;;;5080846;28;20207;-69
2023/09/18 13:54:40;;;;;;;2.80;1.60;;;;;;;;;;5080322;28;20549;-69
2023/09/18 13:57:08;;;;;;;3.27;1.57;;;;;;;;;;5080237;28;20240;-70
2023/09/18 13:59:37;;;;;;;4.30;1.20;;;;;;;;;;5080104;28;20698;-70
2023/09/18 14:02:05;;;;;;;1.23;1.10;;;;;;;;;;5080318;28;20699;-70
2023/09/18 14:04:33;;;;;;;4.40;1.53;;;;;;;;;;5080332;28;20242;-70
2023/09/18 14:07:03;;;;;;;4.37;1.50;;;;;;;;;;5080300;28;20627;-70
2023/09/18 14:09:31;;;;;;;2.30;1.43;;;;;;;;;;5079963;28;20270;-70
2023/09/18 14:12:00;;;;;;;2.50;1.40;;;;;;;;;;5080503;28;20228;-70
2023/09/18 14:14:28;;;;;;;3.07;1.50;;;;;;;;;;5080615;28;20260;-70
2023/09/18 14:16:57;;;;;;;4.93;3.07;;;;;;;;;;5080450;28;20289;-70
2023/09/18 14:19:25;;;;;;;3.33;1.40;;;;;;;;;;5079876;28;20202;-70
2023/09/18 14:21:53;;;;;;;1.97;1.27;;;;;;;;;;5080190;28;20227;-70
2023/09/18 14:24:24;;;;;;;5.43;1.30;;;;;;;;;;5079840;28;20202;-70
2023/09/18 14:26:52;;;;;;;2.30;1.60;;;;;;;;;;5080352;28;20210;-70
2023/09/18 14:29:22;;;;;;;1.97;1.50;;;;;;;;;;5080296;28;20210;-70
2023/09/18 14:31:50;;;;;;;4.93;1.60;;;;;;;;;;5079888;28;20284;-70
2023/09/18 14:34:18;;;;;;;3.63;1.60;;;;;;;;;;5079965;28;20208;-70
2023/09/18 14:36:46;;;;;;;2.00;1.40;;;;;;;;;;5080017;28;20209;-70
2023/09/18 14:39:16;;;;;;;2.33;1.30;;;;;;;;;;5079881;28;20209;-70
2023/09/18 14:41:44;;;;;;;2.73;1.50;;;;;;;;;;5079470;28;20691;-70
2023/09/18 14:44:12;;;;;;;3.23;1.40;;;;;;;;;;5079993;28;20249;-70
2023/09/18 14:46:43;;;;;;;1.60;1.50;;;;;;;;;;5079956;28;20256;-70
2023/09/18 14:49:11;;;;;;;4.90;1.63;;;;;;;;;;5078126;28;20263;-70
2023/09/18 14:51:39;;;;;;;3.10;1.37;;;;;;;;;;5080106;28;20227;-70
2023/09/18 14:54:07;;;;;;;2.30;1.23;;;;;;;;;;5079703;28;20265;-70
2023/09/18 14:56:36;;;;;;;3.87;1.30;;;;;;;;;;5079296;28;20239;-70